This is the latest recevied weather packets stored in our database for station/object WB5NHL-13. If no packets are shown the sender has not sent any weather packets the latest 10 day(s).
| Time | Temp. | Humidity | Pressure | Rain* | Wind** | Luminosity | Snow |
|---|---|---|---|---|---|---|---|
| 1777524330 | 22.78° C | 87% | 1008.6 hPa | 0 mm | - | - | - |
| 1777515918 | 23.33° C | 86% | 1009.1 hPa | 0 mm | - | - | - |
| 1777515320 | 23.33° C | 86% | 1009 hPa | 0 mm | - | - | - |
| 1777512336 | 23.33° C | 85% | 1008.8 hPa | 0 mm | - | - | - |
| 1777511741 | 23.33° C | 85% | 1008.9 hPa | 0 mm | - | - | - |
| 1777510525 | 23.89° C | 85% | 1008.5 hPa | 0 mm | - | - | - |
| 1777509948 | 23.89° C | 84% | 1008.4 hPa | 0 mm | - | - | - |
| 1777509331 | 23.89° C | 83% | 1008.4 hPa | 0 mm | - | - | - |
| 1777505724 | 25.56° C | 76% | 1008.2 hPa | 0 mm | - | - | - |
| 1777503921 | 26.67° C | 72% | 1007.8 hPa | 0 mm | - | - | - |
| 1777502151 | 27.22° C | 71% | 1008.2 hPa | 0 mm | - | - | - |
| 1777496143 | 28.33° C | 68% | 1009 hPa | 0 mm | - | - | - |
| 1777494326 | 26.11° C | 75% | 1009.7 hPa | 0 mm | - | - | - |
| 1777490718 | 26.11° C | 72% | 1010.8 hPa | 1.02 mm | - | - | - |
| 1777488336 | 27.78° C | 72% | 1011.3 hPa | 2.79 mm | - | - | - |
| 1777484130 | 24.44° C | 83% | 1012 hPa | 0 mm | - | - | - |
| 1777483515 | 23.89° C | 87% | 1012.1 hPa | 0 mm | - | - | - |
| 1777479933 | 23.33° C | 86% | 1012.9 hPa | 0 mm | - | - | - |
| 1777472733 | 18.33° C | 99% | 1014.1 hPa | 0 mm | - | - | - |
| 1777469132 | 17.22° C | 99% | 1014.7 hPa | 0.25 mm | - | - | - |
| 1777466725 | 16.67° C | 99% | 1015.5 hPa | 0 mm | - | - | - |
| 1777455945 | 16.11° C | 99% | 1015.4 hPa | 0 mm | - | - | - |
| 1777454723 | 16.11° C | 99% | 1015.4 hPa | 0 mm | - | - | - |
| 1777453517 | 16.11° C | 99% | 1015.4 hPa | 0 mm | - | - | - |
| 1777452324 | 16.11° C | 99% | 1015.3 hPa | 0 mm | - | - | - |
* Rain latest hour (hover to see other rain measurements)
** Current wind speed in m/s (hover to see current wind gust speed)